createdAt,value
2023-05-05T00:01:29.890Z,18.92
2023-05-05T00:03:57.584Z,18.91
2023-05-05T00:06:25.202Z,18.90
2023-05-05T00:08:52.785Z,18.90
2023-05-05T00:11:20.343Z,18.88
2023-05-05T00:13:49.346Z,18.87
2023-05-05T00:16:17.558Z,18.86
2023-05-05T00:18:45.585Z,18.86
2023-05-05T00:21:13.260Z,18.85
2023-05-05T00:23:41.919Z,18.84
2023-05-05T00:26:09.593Z,18.83
2023-05-05T00:28:37.292Z,18.82
2023-05-05T00:31:07.344Z,18.81
2023-05-05T00:33:35.047Z,18.81
2023-05-05T00:36:02.827Z,18.79
2023-05-05T00:38:30.528Z,18.79
2023-05-05T00:40:58.215Z,18.78
2023-05-05T00:43:25.947Z,18.78
2023-05-05T00:46:01.006Z,18.77
2023-05-05T00:48:31.583Z,18.77
2023-05-05T00:51:00.486Z,18.75
2023-05-05T00:53:28.368Z,18.76
2023-05-05T00:55:56.371Z,18.75
2023-05-05T00:58:24.186Z,18.75
2023-05-05T01:00:51.824Z,18.74
2023-05-05T01:03:19.500Z,18.73
2023-05-05T01:05:59.619Z,18.74
2023-05-05T01:08:43.605Z,18.73
2023-05-05T01:11:17.771Z,18.72
2023-05-05T01:13:53.733Z,18.70
2023-05-05T01:16:27.174Z,18.70
2023-05-05T01:19:00.831Z,18.70
2023-05-05T01:21:34.751Z,18.69
2023-05-05T01:24:23.230Z,18.68
2023-05-05T01:27:11.300Z,18.67
2023-05-05T01:29:52.202Z,18.66
2023-05-05T01:32:25.835Z,18.66
2023-05-05T01:34:58.680Z,18.64
2023-05-05T01:37:30.272Z,18.65
2023-05-05T01:40:05.169Z,18.63
2023-05-05T01:42:34.895Z,18.63
2023-05-05T01:45:08.038Z,18.64
2023-05-05T01:47:38.994Z,18.63
2023-05-05T01:50:09.385Z,18.62
2023-05-05T01:52:39.143Z,18.63
2023-05-05T01:55:08.864Z,18.62
2023-05-05T01:57:38.231Z,18.61
2023-05-05T02:00:09.684Z,18.62
2023-05-05T02:02:40.227Z,18.61
2023-05-05T02:05:08.500Z,18.59
2023-05-05T02:07:37.347Z,18.59
2023-05-05T02:10:08.013Z,18.59
2023-05-05T02:12:38.547Z,18.60
2023-05-05T02:15:07.700Z,18.59
2023-05-05T02:17:35.624Z,18.58
2023-05-05T02:20:06.182Z,18.58
2023-05-05T02:22:34.038Z,18.58
2023-05-05T02:25:01.663Z,18.58
2023-05-05T02:27:29.749Z,18.57
2023-05-05T02:30:02.791Z,18.57
2023-05-05T02:32:34.758Z,18.57
2023-05-05T02:35:11.711Z,18.56
2023-05-05T02:37:40.972Z,18.55
2023-05-05T02:40:11.431Z,18.55
2023-05-05T02:42:42.862Z,18.55
2023-05-05T02:45:16.270Z,18.54
2023-05-05T02:47:43.984Z,18.54
2023-05-05T02:50:13.363Z,18.55
2023-05-05T02:52:41.090Z,18.53
2023-05-05T02:55:09.516Z,18.53
2023-05-05T02:57:41.304Z,18.53
2023-05-05T03:00:15.940Z,18.52
2023-05-05T03:02:47.725Z,18.51
2023-05-05T03:05:20.083Z,18.50
2023-05-05T03:07:51.548Z,18.46
2023-05-05T03:10:22.231Z,18.46
2023-05-05T03:12:54.554Z,18.47
2023-05-05T03:15:26.352Z,18.47
2023-05-05T03:17:55.006Z,18.47
2023-05-05T03:20:24.566Z,18.47
2023-05-05T03:22:52.818Z,18.46
2023-05-05T03:25:20.429Z,18.46
2023-05-05T03:27:48.212Z,18.46
2023-05-05T03:30:16.108Z,18.45
2023-05-05T03:32:43.795Z,18.45
2023-05-05T03:35:11.903Z,18.44
2023-05-05T03:37:41.065Z,18.43
2023-05-05T03:40:09.936Z,18.43
2023-05-05T03:42:37.692Z,18.43
2023-05-05T03:45:05.976Z,18.42
2023-05-05T03:47:34.120Z,18.40
2023-05-05T03:50:01.783Z,18.40
2023-05-05T03:52:29.517Z,18.39
2023-05-05T03:55:00.033Z,18.38
2023-05-05T03:57:27.754Z,18.38
2023-05-05T03:59:56.010Z,18.37
2023-05-05T04:02:23.819Z,18.38
2023-05-05T04:04:51.575Z,18.37
2023-05-05T04:07:19.286Z,18.37
2023-05-05T04:09:46.953Z,18.36
2023-05-05T04:12:16.046Z,18.36
2023-05-05T04:14:43.626Z,18.36
2023-05-05T04:17:11.247Z,18.35
2023-05-05T04:19:38.822Z,18.34
2023-05-05T04:22:06.528Z,18.35
2023-05-05T04:24:34.264Z,18.35
2023-05-05T04:27:02.239Z,18.34
2023-05-05T04:29:31.148Z,18.33
2023-05-05T04:31:58.722Z,18.33
2023-05-05T04:34:26.383Z,18.32
2023-05-05T04:36:54.137Z,18.32
2023-05-05T04:39:21.998Z,18.32
2023-05-05T04:41:49.566Z,18.32
2023-05-05T04:44:17.226Z,18.32
2023-05-05T04:46:46.205Z,18.31
2023-05-05T04:49:13.881Z,18.32
2023-05-05T04:51:42.340Z,18.31
2023-05-05T04:54:10.136Z,18.30
2023-05-05T04:56:37.902Z,18.30
2023-05-05T04:59:05.936Z,18.30
2023-05-05T05:01:34.364Z,18.31
2023-05-05T05:04:05.119Z,18.30
2023-05-05T05:06:33.324Z,18.30
2023-05-05T05:09:00.991Z,18.30
2023-05-05T05:11:28.799Z,18.30
2023-05-05T05:13:56.703Z,18.30
2023-05-05T05:16:25.903Z,18.30
2023-05-05T05:18:53.510Z,18.32
2023-05-05T05:21:22.701Z,18.30
2023-05-05T05:23:50.347Z,18.30
2023-05-05T05:26:18.036Z,18.30
2023-05-05T05:28:45.677Z,18.30
2023-05-05T05:31:13.336Z,18.31
2023-05-05T05:33:40.998Z,18.30
2023-05-05T05:36:08.892Z,18.32
2023-05-05T05:38:37.905Z,18.37
2023-05-05T05:41:08.677Z,18.42
2023-05-05T05:43:36.302Z,18.46
2023-05-05T05:46:04.266Z,18.51
2023-05-05T05:48:32.314Z,18.54
2023-05-05T05:50:59.921Z,18.57
2023-05-05T05:53:27.549Z,18.61
2023-05-05T05:55:57.437Z,18.61
2023-05-05T05:58:25.122Z,18.62
2023-05-05T06:00:52.762Z,18.63
2023-05-05T06:03:20.600Z,18.64
2023-05-05T06:05:48.380Z,18.65
2023-05-05T06:08:16.093Z,18.68
2023-05-05T06:10:43.716Z,18.70
2023-05-05T06:13:12.929Z,18.72
2023-05-05T06:15:40.611Z,18.73
2023-05-05T06:18:08.316Z,18.75
2023-05-05T06:20:35.969Z,18.75
2023-05-05T06:23:03.513Z,18.78
2023-05-05T06:25:31.172Z,18.79
2023-05-05T06:27:58.788Z,18.81
2023-05-05T06:30:27.811Z,18.82
2023-05-05T06:32:55.704Z,18.84
2023-05-05T06:35:23.348Z,18.86
2023-05-05T06:37:50.980Z,18.88
2023-05-05T06:40:18.839Z,18.91
2023-05-05T06:42:46.417Z,18.94
2023-05-05T06:45:14.078Z,18.97
2023-05-05T06:47:44.156Z,19.01
2023-05-05T06:50:12.308Z,19.03
2023-05-05T06:52:39.964Z,19.06
2023-05-05T06:55:08.314Z,19.09
2023-05-05T06:57:36.044Z,19.13
2023-05-05T07:00:05.646Z,19.15
2023-05-05T07:02:33.778Z,19.17
2023-05-05T07:05:02.834Z,19.18
2023-05-05T07:07:31.738Z,19.19
2023-05-05T07:09:59.452Z,19.21
2023-05-05T07:12:30.356Z,19.22
2023-05-05T07:14:58.132Z,19.24
2023-05-05T07:17:25.890Z,19.26
2023-05-05T07:19:54.996Z,19.28
2023-05-05T07:22:24.196Z,19.33
2023-05-05T07:24:53.248Z,19.35
2023-05-05T07:27:21.507Z,19.36
2023-05-05T07:29:49.224Z,19.37
2023-05-05T07:32:17.015Z,19.41
2023-05-05T07:34:44.747Z,19.35
2023-05-05T07:37:12.368Z,19.33
2023-05-05T07:39:42.010Z,19.35
2023-05-05T07:42:09.698Z,19.33
2023-05-05T07:44:37.350Z,19.33
2023-05-05T07:47:05.026Z,19.32
2023-05-05T07:49:32.631Z,19.30
2023-05-05T07:52:00.313Z,19.29
2023-05-05T07:54:28.934Z,19.27
2023-05-05T07:56:58.347Z,19.26
2023-05-05T07:59:26.007Z,19.25
2023-05-05T08:01:54.818Z,19.24
2023-05-05T08:04:22.797Z,19.24
2023-05-05T08:06:50.472Z,19.24
2023-05-05T08:09:18.077Z,19.23
2023-05-05T08:11:45.726Z,19.23
2023-05-05T08:14:15.173Z,19.23
2023-05-05T08:16:42.883Z,19.23
2023-05-05T08:19:21.226Z,19.23
2023-05-05T08:21:56.129Z,19.22
2023-05-05T08:24:23.866Z,19.21
2023-05-05T08:26:51.497Z,19.20
2023-05-05T08:29:20.440Z,19.19
2023-05-05T08:31:48.124Z,19.19
2023-05-05T08:34:15.902Z,19.18
2023-05-05T08:36:43.626Z,19.19
2023-05-05T08:39:11.219Z,19.18
2023-05-05T08:41:38.859Z,19.18
2023-05-05T08:44:06.574Z,19.19
2023-05-05T08:46:37.541Z,19.20
2023-05-05T08:49:06.848Z,19.19
2023-05-05T08:51:42.248Z,19.19
2023-05-05T08:54:17.826Z,19.18
2023-05-05T08:56:47.838Z,19.17
2023-05-05T08:59:16.674Z,19.18
2023-05-05T09:01:46.129Z,19.17
2023-05-05T09:04:13.713Z,19.16
2023-05-05T09:06:41.475Z,19.15
2023-05-05T09:09:10.104Z,19.16
2023-05-05T09:11:38.871Z,19.15
2023-05-05T09:14:06.606Z,19.15
2023-05-05T09:16:34.363Z,19.17
2023-05-05T09:19:04.492Z,19.17
2023-05-05T09:21:33.122Z,19.16
2023-05-05T09:24:09.402Z,19.16
2023-05-05T09:26:39.080Z,19.17
2023-05-05T09:29:07.655Z,19.16
2023-05-05T09:31:37.185Z,19.17
2023-05-05T09:34:17.163Z,19.18
2023-05-05T09:36:47.732Z,19.18
2023-05-05T09:39:17.863Z,19.17
2023-05-05T09:41:46.913Z,19.17
2023-05-05T09:44:16.876Z,19.19
2023-05-05T09:46:52.046Z,19.19
2023-05-05T09:49:25.217Z,19.20
2023-05-05T09:51:53.678Z,19.18
2023-05-05T09:54:26.120Z,19.19
2023-05-05T09:56:54.579Z,19.20
2023-05-05T09:59:22.710Z,19.20
2023-05-05T10:01:51.262Z,19.20
2023-05-05T10:04:28.187Z,19.21
2023-05-05T10:06:56.742Z,19.20
2023-05-05T10:09:24.629Z,19.20
2023-05-05T10:11:53.134Z,19.20
2023-05-05T10:14:21.132Z,19.20
2023-05-05T10:16:51.631Z,19.21
2023-05-05T10:19:21.063Z,19.20
2023-05-05T10:21:51.529Z,19.17
2023-05-05T10:24:30.449Z,19.18
2023-05-05T10:26:59.834Z,19.16
2023-05-05T10:29:37.741Z,19.17
2023-05-05T10:32:33.424Z,19.17
2023-05-05T10:34:59.392Z,19.15
2023-05-05T10:37:29.026Z,19.14
2023-05-05T10:39:57.466Z,19.15
2023-05-05T10:42:25.255Z,19.15
2023-05-05T10:44:53.500Z,19.16
2023-05-05T10:47:23.263Z,19.15
2023-05-05T10:49:56.623Z,19.14
2023-05-05T10:52:29.569Z,19.14
2023-05-05T10:55:06.220Z,19.15
2023-05-05T10:57:38.109Z,19.14
2023-05-05T11:00:06.351Z,19.11
2023-05-05T11:02:34.073Z,19.08
2023-05-05T11:05:17.844Z,19.09
2023-05-05T11:07:49.225Z,19.10
2023-05-05T11:10:19.702Z,19.09
2023-05-05T11:13:20.200Z,19.09
2023-05-05T11:15:49.064Z,19.03
2023-05-05T11:18:35.777Z,19.07
2023-05-05T11:21:19.459Z,19.07
2023-05-05T11:23:50.040Z,19.09
2023-05-05T11:26:19.487Z,19.13
2023-05-05T11:29:01.871Z,19.17
2023-05-05T11:31:30.654Z,19.19
2023-05-05T11:34:29.310Z,19.22
2023-05-05T11:37:03.571Z,19.23
2023-05-05T11:39:41.985Z,19.25
2023-05-05T11:42:24.958Z,19.26
2023-05-05T11:44:53.174Z,19.26
2023-05-05T11:47:33.331Z,19.22
2023-05-05T11:50:18.021Z,19.17
2023-05-05T11:52:46.616Z,19.16
2023-05-05T11:55:21.163Z,19.19
2023-05-05T11:57:48.782Z,19.13
2023-05-05T12:00:17.635Z,19.08
2023-05-05T12:02:45.998Z,19.02
2023-05-05T12:05:20.647Z,19.03
